sensor_id;sensor_type;location;lat;lon;timestamp;P1;durP1;ratioP1;P2;durP2;ratioP2
5795;SDS011;2924;51.458;7.046;2022-10-31T00:00:46;17.67;;;8.37;;
5795;SDS011;2924;51.458;7.046;2022-10-31T00:03:12;14.00;;;8.83;;
5795;SDS011;2924;51.458;7.046;2022-10-31T00:05:41;22.53;;;8.90;;
5795;SDS011;2924;51.458;7.046;2022-10-31T00:08:11;20.27;;;8.73;;
5795;SDS011;2924;51.458;7.046;2022-10-31T00:10:38;31.87;;;9.60;;
5795;SDS011;2924;51.458;7.046;2022-10-31T00:13:04;15.63;;;9.10;;
5795;SDS011;2924;51.458;7.046;2022-10-31T00:15:32;19.13;;;9.67;;
5795;SDS011;2924;51.458;7.046;2022-10-31T00:17:59;25.40;;;9.50;;
5795;SDS011;2924;51.458;7.046;2022-10-31T00:20:24;13.77;;;7.80;;
5795;SDS011;2924;51.458;7.046;2022-10-31T00:22:50;14.20;;;7.50;;
5795;SDS011;2924;51.458;7.046;2022-10-31T00:25:16;16.10;;;7.90;;
5795;SDS011;2924;51.458;7.046;2022-10-31T00:27:41;24.97;;;8.57;;
5795;SDS011;2924;51.458;7.046;2022-10-31T00:30:07;13.97;;;10.30;;
5795;SDS011;2924;51.458;7.046;2022-10-31T00:32:33;14.10;;;8.37;;
5795;SDS011;2924;51.458;7.046;2022-10-31T00:34:58;18.47;;;9.40;;
5795;SDS011;2924;51.458;7.046;2022-10-31T00:37:24;16.20;;;7.73;;
5795;SDS011;2924;51.458;7.046;2022-10-31T00:39:50;20.23;;;8.13;;
5795;SDS011;2924;51.458;7.046;2022-10-31T00:42:15;21.87;;;11.20;;
5795;SDS011;2924;51.458;7.046;2022-10-31T00:44:41;13.20;;;8.73;;
5795;SDS011;2924;51.458;7.046;2022-10-31T00:47:07;15.17;;;9.23;;
5795;SDS011;2924;51.458;7.046;2022-10-31T00:49:32;21.33;;;10.13;;
5795;SDS011;2924;51.458;7.046;2022-10-31T00:51:58;17.33;;;8.50;;
5795;SDS011;2924;51.458;7.046;2022-10-31T00:54:24;13.10;;;8.73;;
5795;SDS011;2924;51.458;7.046;2022-10-31T00:56:49;18.47;;;9.70;;
5795;SDS011;2924;51.458;7.046;2022-10-31T00:59:15;16.40;;;9.67;;
5795;SDS011;2924;51.458;7.046;2022-10-31T01:01:40;17.47;;;9.00;;
5795;SDS011;2924;51.458;7.046;2022-10-31T01:04:06;19.97;;;10.90;;
5795;SDS011;2924;51.458;7.046;2022-10-31T01:06:32;25.43;;;10.67;;
5795;SDS011;2924;51.458;7.046;2022-10-31T01:08:57;22.17;;;10.13;;
5795;SDS011;2924;51.458;7.046;2022-10-31T01:11:24;18.17;;;9.23;;
5795;SDS011;2924;51.458;7.046;2022-10-31T01:13:50;23.00;;;10.20;;
5795;SDS011;2924;51.458;7.046;2022-10-31T01:16:18;25.60;;;10.07;;
5795;SDS011;2924;51.458;7.046;2022-10-31T01:18:45;27.00;;;8.80;;
5795;SDS011;2924;51.458;7.046;2022-10-31T01:21:15;15.97;;;9.03;;
5795;SDS011;2924;51.458;7.046;2022-10-31T01:23:41;25.07;;;9.37;;
5795;SDS011;2924;51.458;7.046;2022-10-31T01:26:08;20.50;;;9.30;;
5795;SDS011;2924;51.458;7.046;2022-10-31T01:28:37;28.57;;;8.00;;
5795;SDS011;2924;51.458;7.046;2022-10-31T01:31:08;16.33;;;8.40;;
5795;SDS011;2924;51.458;7.046;2022-10-31T01:33:34;13.43;;;7.97;;
5795;SDS011;2924;51.458;7.046;2022-10-31T01:36:01;19.77;;;8.50;;
5795;SDS011;2924;51.458;7.046;2022-10-31T01:38:36;14.90;;;7.50;;
5795;SDS011;2924;51.458;7.046;2022-10-31T01:41:01;28.13;;;9.03;;
5795;SDS011;2924;51.458;7.046;2022-10-31T01:46:19;19.23;;;8.57;;
5795;SDS011;2924;51.458;7.046;2022-10-31T01:49:09;27.07;;;8.03;;
5795;SDS011;2924;51.458;7.046;2022-10-31T01:51:44;31.07;;;10.33;;
5795;SDS011;2924;51.458;7.046;2022-10-31T01:54:13;19.93;;;8.47;;
5795;SDS011;2924;51.458;7.046;2022-10-31T01:56:42;11.30;;;8.20;;
5795;SDS011;2924;51.458;7.046;2022-10-31T01:59:13;18.87;;;8.20;;
5795;SDS011;2924;51.458;7.046;2022-10-31T02:01:41;22.80;;;8.80;;
5795;SDS011;2924;51.458;7.046;2022-10-31T02:04:07;21.03;;;8.27;;
5795;SDS011;2924;51.458;7.046;2022-10-31T02:09:03;18.20;;;8.00;;
5795;SDS011;2924;51.458;7.046;2022-10-31T02:11:30;22.80;;;8.70;;
5795;SDS011;2924;51.458;7.046;2022-10-31T02:13:58;18.50;;;8.80;;
5795;SDS011;2924;51.458;7.046;2022-10-31T02:16:26;18.40;;;9.30;;
5795;SDS011;2924;51.458;7.046;2022-10-31T02:18:52;22.20;;;9.70;;
5795;SDS011;2924;51.458;7.046;2022-10-31T02:21:33;14.87;;;8.57;;
5795;SDS011;2924;51.458;7.046;2022-10-31T02:29:52;19.80;;;10.80;;
5795;SDS011;2924;51.458;7.046;2022-10-31T02:32:57;20.27;;;10.30;;
5795;SDS011;2924;51.458;7.046;2022-10-31T02:35:30;21.40;;;9.70;;
5795;SDS011;2924;51.458;7.046;2022-10-31T02:38:23;18.43;;;10.33;;
5795;SDS011;2924;51.458;7.046;2022-10-31T02:41:09;16.90;;;10.60;;
5795;SDS011;2924;51.458;7.046;2022-10-31T02:44:04;21.30;;;10.67;;
5795;SDS011;2924;51.458;7.046;2022-10-31T02:46:48;14.37;;;8.80;;
5795;SDS011;2924;51.458;7.046;2022-10-31T02:49:27;28.13;;;14.03;;
5795;SDS011;2924;51.458;7.046;2022-10-31T02:51:58;27.47;;;12.83;;
5795;SDS011;2924;51.458;7.046;2022-10-31T02:54:24;19.37;;;12.60;;
5795;SDS011;2924;51.458;7.046;2022-10-31T02:56:54;31.77;;;12.70;;
5795;SDS011;2924;51.458;7.046;2022-10-31T02:59:25;25.23;;;12.03;;
5795;SDS011;2924;51.458;7.046;2022-10-31T03:13:11;25.20;;;12.60;;
5795;SDS011;2924;51.458;7.046;2022-10-31T03:16:18;23.83;;;13.50;;
5795;SDS011;2924;51.458;7.046;2022-10-31T03:19:03;26.23;;;13.60;;
5795;SDS011;2924;51.458;7.046;2022-10-31T03:24:03;25.13;;;12.70;;
5795;SDS011;2924;51.458;7.046;2022-10-31T03:26:31;30.90;;;13.33;;
5795;SDS011;2924;51.458;7.046;2022-10-31T03:29:00;25.83;;;13.50;;
5795;SDS011;2924;51.458;7.046;2022-10-31T03:31:31;27.20;;;14.00;;
5795;SDS011;2924;51.458;7.046;2022-10-31T03:34:01;29.73;;;12.77;;
5795;SDS011;2924;51.458;7.046;2022-10-31T03:36:28;26.70;;;12.80;;
5795;SDS011;2924;51.458;7.046;2022-10-31T03:38:56;21.63;;;12.60;;
5795;SDS011;2924;51.458;7.046;2022-10-31T03:41:25;24.87;;;12.63;;
5795;SDS011;2924;51.458;7.046;2022-10-31T03:44:00;30.73;;;13.10;;
5795;SDS011;2924;51.458;7.046;2022-10-31T03:46:30;29.60;;;13.83;;
5795;SDS011;2924;51.458;7.046;2022-10-31T03:48:56;22.17;;;12.13;;
5795;SDS011;2924;51.458;7.046;2022-10-31T03:59:22;23.50;;;11.80;;
5795;SDS011;2924;51.458;7.046;2022-10-31T04:01:53;24.00;;;13.80;;
5795;SDS011;2924;51.458;7.046;2022-10-31T04:04:24;29.27;;;13.00;;
5795;SDS011;2924;51.458;7.046;2022-10-31T04:06:50;29.13;;;13.37;;
5795;SDS011;2924;51.458;7.046;2022-10-31T04:09:19;29.03;;;12.70;;
5795;SDS011;2924;51.458;7.046;2022-10-31T04:11:48;38.23;;;14.60;;
5795;SDS011;2924;51.458;7.046;2022-10-31T04:14:17;37.73;;;14.27;;
5795;SDS011;2924;51.458;7.046;2022-10-31T04:16:43;32.23;;;14.90;;
5795;SDS011;2924;51.458;7.046;2022-10-31T04:19:12;32.63;;;14.70;;
5795;SDS011;2924;51.458;7.046;2022-10-31T04:21:39;42.33;;;16.80;;
5795;SDS011;2924;51.458;7.046;2022-10-31T04:24:05;37.90;;;15.60;;
5795;SDS011;2924;51.458;7.046;2022-10-31T04:26:30;37.00;;;16.20;;
5795;SDS011;2924;51.458;7.046;2022-10-31T04:28:56;47.20;;;16.47;;
5795;SDS011;2924;51.458;7.046;2022-10-31T04:31:22;31.03;;;14.73;;
5795;SDS011;2924;51.458;7.046;2022-10-31T04:33:47;27.73;;;14.70;;
5795;SDS011;2924;51.458;7.046;2022-10-31T04:36:13;39.57;;;14.27;;
5795;SDS011;2924;51.458;7.046;2022-10-31T04:38:39;29.37;;;14.47;;
5795;SDS011;2924;51.458;7.046;2022-10-31T04:41:04;38.77;;;16.00;;
5795;SDS011;2924;51.458;7.046;2022-10-31T04:43:30;24.93;;;15.17;;
5795;SDS011;2924;51.458;7.046;2022-10-31T04:45:55;33.30;;;15.77;;
5795;SDS011;2924;51.458;7.046;2022-10-31T04:48:21;27.23;;;14.63;;
5795;SDS011;2924;51.458;7.046;2022-10-31T04:50:47;36.53;;;14.40;;
5795;SDS011;2924;51.458;7.046;2022-10-31T04:53:12;37.70;;;13.60;;
5795;SDS011;2924;51.458;7.046;2022-10-31T04:55:38;31.30;;;13.60;;
5795;SDS011;2924;51.458;7.046;2022-10-31T04:58:03;28.63;;;14.80;;
5795;SDS011;2924;51.458;7.046;2022-10-31T05:00:29;30.53;;;14.70;;
5795;SDS011;2924;51.458;7.046;2022-10-31T05:02:56;25.77;;;12.43;;
5795;SDS011;2924;51.458;7.046;2022-10-31T05:05:24;29.83;;;14.80;;
5795;SDS011;2924;51.458;7.046;2022-10-31T05:07:51;46.00;;;16.17;;
5795;SDS011;2924;51.458;7.046;2022-10-31T05:10:19;31.77;;;14.80;;
5795;SDS011;2924;51.458;7.046;2022-10-31T05:12:46;29.43;;;14.90;;
5795;SDS011;2924;51.458;7.046;2022-10-31T05:15:13;29.83;;;14.50;;
5795;SDS011;2924;51.458;7.046;2022-10-31T05:17:40;42.80;;;16.33;;
5795;SDS011;2924;51.458;7.046;2022-10-31T05:20:06;37.90;;;16.53;;
5795;SDS011;2924;51.458;7.046;2022-10-31T05:22:32;33.90;;;16.57;;
5795;SDS011;2924;51.458;7.046;2022-10-31T05:24:58;39.33;;;15.80;;
5795;SDS011;2924;51.458;7.046;2022-10-31T05:27:23;54.53;;;18.37;;
5795;SDS011;2924;51.458;7.046;2022-10-31T05:29:49;40.43;;;17.77;;
5795;SDS011;2924;51.458;7.046;2022-10-31T05:32:15;40.80;;;18.10;;
5795;SDS011;2924;51.458;7.046;2022-10-31T05:34:40;40.73;;;19.70;;
5795;SDS011;2924;51.458;7.046;2022-10-31T05:37:06;37.57;;;17.93;;
5795;SDS011;2924;51.458;7.046;2022-10-31T05:39:32;31.40;;;18.10;;
5795;SDS011;2924;51.458;7.046;2022-10-31T05:41:57;32.93;;;16.03;;
5795;SDS011;2924;51.458;7.046;2022-10-31T05:44:23;41.33;;;17.90;;
5795;SDS011;2924;51.458;7.046;2022-10-31T05:46:49;39.53;;;16.90;;
5795;SDS011;2924;51.458;7.046;2022-10-31T05:49:14;34.57;;;17.27;;
5795;SDS011;2924;51.458;7.046;2022-10-31T05:51:41;39.53;;;16.43;;
5795;SDS011;2924;51.458;7.046;2022-10-31T05:54:07;36.73;;;16.97;;
5795;SDS011;2924;51.458;7.046;2022-10-31T05:56:33;39.80;;;18.17;;
5795;SDS011;2924;51.458;7.046;2022-10-31T05:58:58;43.67;;;18.87;;
5795;SDS011;2924;51.458;7.046;2022-10-31T06:01:24;38.70;;;17.93;;
5795;SDS011;2924;51.458;7.046;2022-10-31T06:03:50;44.77;;;19.60;;
5795;SDS011;2924;51.458;7.046;2022-10-31T06:06:15;41.33;;;19.80;;
5795;SDS011;2924;51.458;7.046;2022-10-31T06:08:41;44.33;;;22.53;;
5795;SDS011;2924;51.458;7.046;2022-10-31T06:11:07;44.33;;;22.13;;
5795;SDS011;2924;51.458;7.046;2022-10-31T06:13:32;46.70;;;23.63;;
5795;SDS011;2924;51.458;7.046;2022-10-31T06:15:58;45.17;;;22.20;;
5795;SDS011;2924;51.458;7.046;2022-10-31T06:18:24;70.33;;;23.60;;
5795;SDS011;2924;51.458;7.046;2022-10-31T06:20:49;45.07;;;22.40;;
5795;SDS011;2924;51.458;7.046;2022-10-31T06:23:15;51.13;;;22.03;;
5795;SDS011;2924;51.458;7.046;2022-10-31T06:25:41;49.43;;;22.17;;
5795;SDS011;2924;51.458;7.046;2022-10-31T06:28:06;56.50;;;23.70;;
5795;SDS011;2924;51.458;7.046;2022-10-31T06:30:32;47.07;;;21.40;;
5795;SDS011;2924;51.458;7.046;2022-10-31T06:33:01;54.97;;;23.60;;
5795;SDS011;2924;51.458;7.046;2022-10-31T06:35:28;46.17;;;21.70;;
5795;SDS011;2924;51.458;7.046;2022-10-31T06:37:54;54.63;;;25.23;;
5795;SDS011;2924;51.458;7.046;2022-10-31T06:40:20;46.13;;;19.90;;
5795;SDS011;2924;51.458;7.046;2022-10-31T06:42:46;52.07;;;22.17;;
5795;SDS011;2924;51.458;7.046;2022-10-31T06:45:12;50.47;;;20.57;;
5795;SDS011;2924;51.458;7.046;2022-10-31T06:47:38;59.00;;;22.60;;
5795;SDS011;2924;51.458;7.046;2022-10-31T06:50:04;53.43;;;22.20;;
5795;SDS011;2924;51.458;7.046;2022-10-31T06:52:30;46.90;;;21.93;;
5795;SDS011;2924;51.458;7.046;2022-10-31T06:54:55;40.30;;;21.37;;
5795;SDS011;2924;51.458;7.046;2022-10-31T06:57:21;48.23;;;21.83;;
5795;SDS011;2924;51.458;7.046;2022-10-31T06:59:46;43.77;;;21.80;;
5795;SDS011;2924;51.458;7.046;2022-10-31T07:02:12;56.43;;;22.73;;
5795;SDS011;2924;51.458;7.046;2022-10-31T07:04:38;49.17;;;21.10;;
5795;SDS011;2924;51.458;7.046;2022-10-31T07:07:04;42.70;;;20.77;;
5795;SDS011;2924;51.458;7.046;2022-10-31T07:09:29;42.10;;;23.10;;
5795;SDS011;2924;51.458;7.046;2022-10-31T07:11:55;44.73;;;21.00;;
5795;SDS011;2924;51.458;7.046;2022-10-31T07:14:20;50.87;;;22.90;;
5795;SDS011;2924;51.458;7.046;2022-10-31T07:16:50;56.57;;;23.23;;
5795;SDS011;2924;51.458;7.046;2022-10-31T07:19:16;43.43;;;21.43;;
5795;SDS011;2924;51.458;7.046;2022-10-31T07:21:41;38.83;;;20.83;;
5795;SDS011;2924;51.458;7.046;2022-10-31T07:24:07;52.53;;;22.40;;
5795;SDS011;2924;51.458;7.046;2022-10-31T07:26:33;42.83;;;22.67;;
5795;SDS011;2924;51.458;7.046;2022-10-31T07:28:58;51.50;;;23.60;;
5795;SDS011;2924;51.458;7.046;2022-10-31T07:31:24;54.43;;;20.70;;
5795;SDS011;2924;51.458;7.046;2022-10-31T07:33:50;58.67;;;23.50;;
5795;SDS011;2924;51.458;7.046;2022-10-31T07:36:16;45.07;;;20.97;;
5795;SDS011;2924;51.458;7.046;2022-10-31T07:38:42;55.53;;;20.67;;
5795;SDS011;2924;51.458;7.046;2022-10-31T07:41:07;45.30;;;20.67;;
5795;SDS011;2924;51.458;7.046;2022-10-31T07:43:33;61.77;;;21.30;;
5795;SDS011;2924;51.458;7.046;2022-10-31T07:45:59;41.23;;;20.90;;
5795;SDS011;2924;51.458;7.046;2022-10-31T07:48:24;37.70;;;21.03;;
5795;SDS011;2924;51.458;7.046;2022-10-31T07:50:50;44.47;;;19.90;;
5795;SDS011;2924;51.458;7.046;2022-10-31T07:53:16;48.53;;;22.53;;
5795;SDS011;2924;51.458;7.046;2022-10-31T07:55:42;36.53;;;20.30;;
5795;SDS011;2924;51.458;7.046;2022-10-31T07:58:09;47.33;;;20.73;;
5795;SDS011;2924;51.458;7.046;2022-10-31T08:00:36;47.30;;;23.37;;
5795;SDS011;2924;51.458;7.046;2022-10-31T08:03:04;41.60;;;20.97;;
5795;SDS011;2924;51.458;7.046;2022-10-31T08:05:31;39.33;;;20.60;;
5795;SDS011;2924;51.458;7.046;2022-10-31T08:07:58;48.10;;;20.07;;
5795;SDS011;2924;51.458;7.046;2022-10-31T08:10:23;42.13;;;18.40;;
5795;SDS011;2924;51.458;7.046;2022-10-31T08:12:56;39.47;;;19.07;;
5795;SDS011;2924;51.458;7.046;2022-10-31T08:15:23;30.67;;;17.60;;
5795;SDS011;2924;51.458;7.046;2022-10-31T08:17:50;44.40;;;18.10;;
5795;SDS011;2924;51.458;7.046;2022-10-31T08:20:16;35.90;;;17.30;;
5795;SDS011;2924;51.458;7.046;2022-10-31T08:22:41;31.90;;;18.10;;
5795;SDS011;2924;51.458;7.046;2022-10-31T08:25:07;35.77;;;16.97;;
5795;SDS011;2924;51.458;7.046;2022-10-31T08:27:33;29.90;;;17.70;;
5795;SDS011;2924;51.458;7.046;2022-10-31T08:29:59;43.33;;;17.63;;
5795;SDS011;2924;51.458;7.046;2022-10-31T08:32:24;35.37;;;17.10;;
5795;SDS011;2924;51.458;7.046;2022-10-31T08:34:50;35.80;;;18.70;;
5795;SDS011;2924;51.458;7.046;2022-10-31T08:37:16;33.20;;;17.73;;
5795;SDS011;2924;51.458;7.046;2022-10-31T08:39:47;31.90;;;19.27;;
5795;SDS011;2924;51.458;7.046;2022-10-31T08:42:13;43.13;;;19.03;;
5795;SDS011;2924;51.458;7.046;2022-10-31T08:44:39;35.77;;;17.97;;
5795;SDS011;2924;51.458;7.046;2022-10-31T08:47:04;30.67;;;18.80;;
5795;SDS011;2924;51.458;7.046;2022-10-31T08:49:30;37.33;;;17.73;;
5795;SDS011;2924;51.458;7.046;2022-10-31T08:51:56;31.33;;;18.10;;
5795;SDS011;2924;51.458;7.046;2022-10-31T08:54:21;34.10;;;17.40;;
5795;SDS011;2924;51.458;7.046;2022-10-31T08:56:47;33.07;;;17.70;;
5795;SDS011;2924;51.458;7.046;2022-10-31T08:59:13;34.13;;;17.60;;
5795;SDS011;2924;51.458;7.046;2022-10-31T09:01:38;38.27;;;19.90;;
5795;SDS011;2924;51.458;7.046;2022-10-31T09:04:04;35.20;;;19.13;;
5795;SDS011;2924;51.458;7.046;2022-10-31T09:06:29;45.67;;;20.20;;
5795;SDS011;2924;51.458;7.046;2022-10-31T09:08:55;36.50;;;19.60;;
5795;SDS011;2924;51.458;7.046;2022-10-31T09:11:21;35.63;;;18.43;;
5795;SDS011;2924;51.458;7.046;2022-10-31T09:13:46;33.23;;;17.73;;
5795;SDS011;2924;51.458;7.046;2022-10-31T09:16:12;43.10;;;19.00;;
5795;SDS011;2924;51.458;7.046;2022-10-31T09:18:37;38.90;;;17.53;;
5795;SDS011;2924;51.458;7.046;2022-10-31T09:21:03;43.23;;;20.40;;
5795;SDS011;2924;51.458;7.046;2022-10-31T09:23:29;40.23;;;19.40;;
5795;SDS011;2924;51.458;7.046;2022-10-31T09:25:54;41.80;;;19.43;;
5795;SDS011;2924;51.458;7.046;2022-10-31T09:28:21;39.47;;;17.80;;
5795;SDS011;2924;51.458;7.046;2022-10-31T09:30:49;32.90;;;18.37;;
5795;SDS011;2924;51.458;7.046;2022-10-31T09:33:17;33.83;;;17.50;;
5795;SDS011;2924;51.458;7.046;2022-10-31T09:35:43;36.67;;;17.43;;
5795;SDS011;2924;51.458;7.046;2022-10-31T09:38:09;48.60;;;18.93;;
5795;SDS011;2924;51.458;7.046;2022-10-31T09:40:37;32.63;;;19.10;;
5795;SDS011;2924;51.458;7.046;2022-10-31T09:43:07;51.33;;;18.27;;
5795;SDS011;2924;51.458;7.046;2022-10-31T09:45:49;40.93;;;17.37;;
5795;SDS011;2924;51.458;7.046;2022-10-31T09:51:11;41.53;;;18.07;;
5795;SDS011;2924;51.458;7.046;2022-10-31T09:54:00;36.43;;;18.00;;
5795;SDS011;2924;51.458;7.046;2022-10-31T09:56:36;44.60;;;17.90;;
5795;SDS011;2924;51.458;7.046;2022-10-31T09:59:03;40.73;;;17.13;;
5795;SDS011;2924;51.458;7.046;2022-10-31T10:01:42;49.40;;;19.27;;
5795;SDS011;2924;51.458;7.046;2022-10-31T10:07:10;48.50;;;19.83;;
5795;SDS011;2924;51.458;7.046;2022-10-31T10:09:36;41.63;;;21.00;;
5795;SDS011;2924;51.458;7.046;2022-10-31T10:17:38;40.50;;;19.70;;
5795;SDS011;2924;51.458;7.046;2022-10-31T10:25:49;38.13;;;21.43;;
5795;SDS011;2924;51.458;7.046;2022-10-31T10:28:21;37.30;;;19.60;;
5795;SDS011;2924;51.458;7.046;2022-10-31T10:31:07;42.60;;;20.97;;
5795;SDS011;2924;51.458;7.046;2022-10-31T10:33:38;47.63;;;19.90;;
5795;SDS011;2924;51.458;7.046;2022-10-31T10:36:12;35.37;;;17.83;;
5795;SDS011;2924;51.458;7.046;2022-10-31T10:38:48;32.50;;;18.60;;
5795;SDS011;2924;51.458;7.046;2022-10-31T10:41:22;35.10;;;18.50;;
5795;SDS011;2924;51.458;7.046;2022-10-31T10:43:49;26.83;;;15.97;;
5795;SDS011;2924;51.458;7.046;2022-10-31T10:46:19;42.33;;;17.87;;
5795;SDS011;2924;51.458;7.046;2022-10-31T10:59:45;31.10;;;17.40;;
5795;SDS011;2924;51.458;7.046;2022-10-31T11:02:25;33.53;;;16.70;;
5795;SDS011;2924;51.458;7.046;2022-10-31T11:04:53;30.67;;;17.30;;
5795;SDS011;2924;51.458;7.046;2022-10-31T11:07:20;41.20;;;15.80;;
5795;SDS011;2924;51.458;7.046;2022-10-31T11:09:46;30.83;;;17.93;;
5795;SDS011;2924;51.458;7.046;2022-10-31T11:12:22;35.10;;;16.93;;
5795;SDS011;2924;51.458;7.046;2022-10-31T11:14:53;32.10;;;16.20;;
5795;SDS011;2924;51.458;7.046;2022-10-31T11:17:30;37.07;;;14.77;;
5795;SDS011;2924;51.458;7.046;2022-10-31T11:22:39;32.37;;;15.53;;
5795;SDS011;2924;51.458;7.046;2022-10-31T11:25:20;27.00;;;15.20;;
5795;SDS011;2924;51.458;7.046;2022-10-31T11:27:47;27.13;;;14.77;;
5795;SDS011;2924;51.458;7.046;2022-10-31T11:30:27;43.30;;;15.00;;
5795;SDS011;2924;51.458;7.046;2022-10-31T11:32:54;35.30;;;15.87;;
5795;SDS011;2924;51.458;7.046;2022-10-31T11:35:21;44.00;;;15.67;;
5795;SDS011;2924;51.458;7.046;2022-10-31T11:37:49;30.97;;;13.30;;
5795;SDS011;2924;51.458;7.046;2022-10-31T11:40:19;28.40;;;13.43;;
5795;SDS011;2924;51.458;7.046;2022-10-31T11:42:50;30.50;;;14.00;;
5795;SDS011;2924;51.458;7.046;2022-10-31T11:45:27;28.50;;;12.40;;
5795;SDS011;2924;51.458;7.046;2022-10-31T11:47:58;21.57;;;12.20;;
5795;SDS011;2924;51.458;7.046;2022-10-31T11:50:39;23.90;;;11.80;;
5795;SDS011;2924;51.458;7.046;2022-10-31T11:53:12;30.73;;;11.47;;
5795;SDS011;2924;51.458;7.046;2022-10-31T11:55:45;26.13;;;10.73;;
5795;SDS011;2924;51.458;7.046;2022-10-31T11:58:22;22.63;;;10.17;;
5795;SDS011;2924;51.458;7.046;2022-10-31T12:00:50;21.93;;;11.03;;
5795;SDS011;2924;51.458;7.046;2022-10-31T12:06:23;36.40;;;10.40;;
5795;SDS011;2924;51.458;7.046;2022-10-31T12:09:01;23.77;;;10.30;;
5795;SDS011;2924;51.458;7.046;2022-10-31T12:17:04;30.47;;;9.23;;
5795;SDS011;2924;51.458;7.046;2022-10-31T12:25:37;20.00;;;9.67;;
5795;SDS011;2924;51.458;7.046;2022-10-31T12:28:28;19.80;;;7.57;;
5795;SDS011;2924;51.458;7.046;2022-10-31T12:39:16;20.90;;;10.00;;
5795;SDS011;2924;51.458;7.046;2022-10-31T12:50:55;20.30;;;7.20;;
5795;SDS011;2924;51.458;7.046;2022-10-31T12:59:40;17.47;;;8.67;;
5795;SDS011;2924;51.458;7.046;2022-10-31T13:02:28;17.80;;;7.10;;
5795;SDS011;2924;51.458;7.046;2022-10-31T13:05:02;16.90;;;6.67;;
5795;SDS011;2924;51.458;7.046;2022-10-31T13:07:53;20.73;;;7.37;;
5795;SDS011;2924;51.458;7.046;2022-10-31T13:10:37;12.23;;;6.97;;
5795;SDS011;2924;51.458;7.046;2022-10-31T13:13:06;20.47;;;6.40;;
5795;SDS011;2924;51.458;7.046;2022-10-31T13:15:48;15.20;;;6.03;;
5795;SDS011;2924;51.458;7.046;2022-10-31T13:18:44;12.63;;;6.43;;
5795;SDS011;2924;51.458;7.046;2022-10-31T13:21:12;13.70;;;4.77;;
5795;SDS011;2924;51.458;7.046;2022-10-31T13:23:49;18.10;;;5.37;;
5795;SDS011;2924;51.458;7.046;2022-10-31T13:26:32;17.43;;;5.97;;
5795;SDS011;2924;51.458;7.046;2022-10-31T13:31:53;17.53;;;6.00;;
5795;SDS011;2924;51.458;7.046;2022-10-31T13:34:22;24.03;;;5.60;;
5795;SDS011;2924;51.458;7.046;2022-10-31T13:39:49;19.33;;;5.37;;
5795;SDS011;2924;51.458;7.046;2022-10-31T13:45:17;23.03;;;6.10;;
5795;SDS011;2924;51.458;7.046;2022-10-31T13:47:55;11.60;;;4.83;;
5795;SDS011;2924;51.458;7.046;2022-10-31T13:50:26;21.63;;;5.63;;
5795;SDS011;2924;51.458;7.046;2022-10-31T13:58:40;16.60;;;4.40;;
5795;SDS011;2924;51.458;7.046;2022-10-31T14:01:27;16.43;;;5.50;;
5795;SDS011;2924;51.458;7.046;2022-10-31T14:11:53;15.43;;;4.83;;
5795;SDS011;2924;51.458;7.046;2022-10-31T14:14:21;15.13;;;4.87;;
5795;SDS011;2924;51.458;7.046;2022-10-31T14:16:55;13.23;;;4.90;;
5795;SDS011;2924;51.458;7.046;2022-10-31T14:19:22;18.77;;;5.40;;
5795;SDS011;2924;51.458;7.046;2022-10-31T14:21:50;14.27;;;3.93;;
5795;SDS011;2924;51.458;7.046;2022-10-31T14:26:54;16.87;;;4.67;;
5795;SDS011;2924;51.458;7.046;2022-10-31T14:29:27;8.03;;;3.90;;
5795;SDS011;2924;51.458;7.046;2022-10-31T14:32:03;12.83;;;3.50;;
5795;SDS011;2924;51.458;7.046;2022-10-31T14:34:36;12.23;;;4.07;;
5795;SDS011;2924;51.458;7.046;2022-10-31T14:44:52;18.37;;;4.67;;
5795;SDS011;2924;51.458;7.046;2022-10-31T14:52:48;19.27;;;4.40;;
5795;SDS011;2924;51.458;7.046;2022-10-31T14:55:16;9.20;;;2.87;;
5795;SDS011;2924;51.458;7.046;2022-10-31T14:57:54;11.83;;;4.03;;
5795;SDS011;2924;51.458;7.046;2022-10-31T15:00:25;16.67;;;4.40;;
5795;SDS011;2924;51.458;7.046;2022-10-31T15:03:07;10.57;;;4.73;;
5795;SDS011;2924;51.458;7.046;2022-10-31T15:05:52;8.70;;;3.90;;
5795;SDS011;2924;51.458;7.046;2022-10-31T15:11:11;6.63;;;3.90;;
5795;SDS011;2924;51.458;7.046;2022-10-31T15:13:53;8.53;;;4.00;;
5795;SDS011;2924;51.458;7.046;2022-10-31T15:16:20;13.13;;;3.80;;
5795;SDS011;2924;51.458;7.046;2022-10-31T15:18:58;17.17;;;4.30;;
5795;SDS011;2924;51.458;7.046;2022-10-31T15:21:27;22.00;;;4.10;;
5795;SDS011;2924;51.458;7.046;2022-10-31T15:23:55;11.03;;;4.27;;
5795;SDS011;2924;51.458;7.046;2022-10-31T15:26:23;14.23;;;4.33;;
5795;SDS011;2924;51.458;7.046;2022-10-31T15:29:02;15.33;;;4.10;;
5795;SDS011;2924;51.458;7.046;2022-10-31T15:31:36;10.77;;;4.03;;
5795;SDS011;2924;51.458;7.046;2022-10-31T15:34:03;15.37;;;4.93;;
5795;SDS011;2924;51.458;7.046;2022-10-31T15:36:37;11.90;;;4.30;;
5795;SDS011;2924;51.458;7.046;2022-10-31T15:39:02;22.97;;;3.70;;
5795;SDS011;2924;51.458;7.046;2022-10-31T15:41:29;9.70;;;4.47;;
5795;SDS011;2924;51.458;7.046;2022-10-31T15:44:14;9.87;;;4.23;;
5795;SDS011;2924;51.458;7.046;2022-10-31T15:46:51;14.23;;;4.93;;
5795;SDS011;2924;51.458;7.046;2022-10-31T15:49:26;17.43;;;4.80;;
5795;SDS011;2924;51.458;7.046;2022-10-31T15:51:55;12.50;;;4.87;;
5795;SDS011;2924;51.458;7.046;2022-10-31T15:54:25;8.10;;;4.30;;
5795;SDS011;2924;51.458;7.046;2022-10-31T15:56:51;12.53;;;4.93;;
5795;SDS011;2924;51.458;7.046;2022-10-31T15:59:19;18.43;;;5.10;;
5795;SDS011;2924;51.458;7.046;2022-10-31T16:02:02;11.80;;;4.50;;
5795;SDS011;2924;51.458;7.046;2022-10-31T16:04:34;9.30;;;4.00;;
5795;SDS011;2924;51.458;7.046;2022-10-31T16:09:52;16.17;;;4.20;;
5795;SDS011;2924;51.458;7.046;2022-10-31T16:12:42;15.33;;;4.10;;
5795;SDS011;2924;51.458;7.046;2022-10-31T16:15:14;11.50;;;4.53;;
5795;SDS011;2924;51.458;7.046;2022-10-31T16:17:45;11.17;;;5.00;;
5795;SDS011;2924;51.458;7.046;2022-10-31T16:20:27;13.43;;;4.20;;
5795;SDS011;2924;51.458;7.046;2022-10-31T16:22:54;14.37;;;5.20;;
5795;SDS011;2924;51.458;7.046;2022-10-31T16:27:51;15.30;;;4.80;;
5795;SDS011;2924;51.458;7.046;2022-10-31T16:30:38;14.17;;;4.53;;
5795;SDS011;2924;51.458;7.046;2022-10-31T16:35:58;16.23;;;4.40;;
5795;SDS011;2924;51.458;7.046;2022-10-31T16:38:25;11.33;;;4.10;;
5795;SDS011;2924;51.458;7.046;2022-10-31T16:40:51;15.40;;;4.53;;
5795;SDS011;2924;51.458;7.046;2022-10-31T16:43:18;13.07;;;4.27;;
5795;SDS011;2924;51.458;7.046;2022-10-31T16:45:47;9.43;;;4.40;;
5795;SDS011;2924;51.458;7.046;2022-10-31T16:48:18;12.83;;;4.20;;
5795;SDS011;2924;51.458;7.046;2022-10-31T16:50:46;20.13;;;4.50;;
5795;SDS011;2924;51.458;7.046;2022-10-31T16:53:13;10.00;;;3.83;;
5795;SDS011;2924;51.458;7.046;2022-10-31T16:55:56;11.53;;;3.87;;
5795;SDS011;2924;51.458;7.046;2022-10-31T16:58:41;5.97;;;3.40;;
5795;SDS011;2924;51.458;7.046;2022-10-31T17:01:07;13.23;;;3.80;;
5795;SDS011;2924;51.458;7.046;2022-10-31T17:03:33;10.77;;;3.17;;
5795;SDS011;2924;51.458;7.046;2022-10-31T17:05:58;8.80;;;3.67;;
5795;SDS011;2924;51.458;7.046;2022-10-31T17:08:24;17.20;;;5.00;;
5795;SDS011;2924;51.458;7.046;2022-10-31T17:10:50;8.83;;;4.20;;
5795;SDS011;2924;51.458;7.046;2022-10-31T17:13:19;17.60;;;4.23;;
5795;SDS011;2924;51.458;7.046;2022-10-31T17:15:48;8.53;;;3.30;;
5795;SDS011;2924;51.458;7.046;2022-10-31T17:18:16;15.73;;;4.30;;
5795;SDS011;2924;51.458;7.046;2022-10-31T17:20:42;18.63;;;3.80;;
5795;SDS011;2924;51.458;7.046;2022-10-31T17:23:09;20.10;;;3.80;;
5795;SDS011;2924;51.458;7.046;2022-10-31T17:25:36;15.37;;;3.93;;
5795;SDS011;2924;51.458;7.046;2022-10-31T17:28:02;10.37;;;3.27;;
5795;SDS011;2924;51.458;7.046;2022-10-31T17:30:28;11.17;;;3.60;;
5795;SDS011;2924;51.458;7.046;2022-10-31T17:32:55;8.47;;;3.90;;
5795;SDS011;2924;51.458;7.046;2022-10-31T17:35:21;13.07;;;3.33;;
5795;SDS011;2924;51.458;7.046;2022-10-31T17:37:47;13.60;;;3.47;;